sensor_id;sensor_type;location;lat;lon;timestamp;pressure;altitude;pressure_sealevel;temperature;humidity
54554;BME280;40450;55.848;-3.572;2023-03-16T00:01:50;97950.90;;;3.42;87.00
54554;BME280;40450;55.848;-3.572;2023-03-16T00:04:20;97950.51;;;2.12;88.98
54554;BME280;40450;55.848;-3.572;2023-03-16T00:06:51;97946.21;;;2.02;89.63
54554;BME280;40450;55.848;-3.572;2023-03-16T00:09:21;97944.87;;;2.85;88.59
54554;BME280;40450;55.848;-3.572;2023-03-16T00:11:52;97936.07;;;3.10;88.21
54554;BME280;40450;55.848;-3.572;2023-03-16T00:14:22;97930.35;;;5.50;84.51
54554;BME280;40450;55.848;-3.572;2023-03-16T00:16:53;97933.04;;;4.50;85.00
54554;BME280;40450;55.848;-3.572;2023-03-16T00:19:23;97940.65;;;-0.58;95.35
54554;BME280;40450;55.848;-3.572;2023-03-16T00:21:54;97942.69;;;-0.97;97.89
54554;BME280;40450;55.848;-3.572;2023-03-16T00:24:24;97941.69;;;-0.09;96.45
54554;BME280;40450;55.848;-3.572;2023-03-16T00:26:54;97940.84;;;-0.10;96.12
54554;BME280;40450;55.848;-3.572;2023-03-16T00:29:25;97937.43;;;1.17;93.75
54554;BME280;40450;55.848;-3.572;2023-03-16T00:31:55;97932.88;;;1.47;92.95
54554;BME280;40450;55.848;-3.572;2023-03-16T00:34:31;97932.08;;;2.12;92.69
54554;BME280;40450;55.848;-3.572;2023-03-16T00:36:56;97932.57;;;1.97;91.39
54554;BME280;40450;55.848;-3.572;2023-03-16T00:39:26;97927.04;;;0.61;95.03
54554;BME280;40450;55.848;-3.572;2023-03-16T00:41:57;97925.67;;;-0.54;96.71
54554;BME280;40450;55.848;-3.572;2023-03-16T00:44:27;97919.52;;;1.42;94.87
54554;BME280;40450;55.848;-3.572;2023-03-16T00:46:57;97911.60;;;4.77;90.10
54554;BME280;40450;55.848;-3.572;2023-03-16T00:49:28;97898.74;;;5.85;87.30
54554;BME280;40450;55.848;-3.572;2023-03-16T00:51:58;97899.92;;;5.51;85.02
54554;BME280;40450;55.848;-3.572;2023-03-16T00:54:29;97889.53;;;5.62;84.35
54554;BME280;40450;55.848;-3.572;2023-03-16T00:56:59;97888.78;;;3.87;86.28
54554;BME280;40450;55.848;-3.572;2023-03-16T00:59:30;97885.58;;;4.26;87.61
54554;BME280;40450;55.848;-3.572;2023-03-16T01:02:00;97879.35;;;3.65;86.80
54554;BME280;40450;55.848;-3.572;2023-03-16T01:04:30;97874.85;;;4.91;85.01
54554;BME280;40450;55.848;-3.572;2023-03-16T01:07:01;97873.02;;;4.43;87.36
54554;BME280;40450;55.848;-3.572;2023-03-16T01:09:36;97868.45;;;4.39;84.53
54554;BME280;40450;55.848;-3.572;2023-03-16T01:12:02;97862.39;;;3.31;88.17
54554;BME280;40450;55.848;-3.572;2023-03-16T01:14:32;97862.89;;;3.93;87.16
54554;BME280;40450;55.848;-3.572;2023-03-16T01:17:02;97854.08;;;3.44;88.51
54554;BME280;40450;55.848;-3.572;2023-03-16T01:19:32;97853.17;;;2.50;90.02
54554;BME280;40450;55.848;-3.572;2023-03-16T01:22:04;97843.53;;;4.10;86.70
54554;BME280;40450;55.848;-3.572;2023-03-16T01:24:34;97839.42;;;3.80;87.63
54554;BME280;40450;55.848;-3.572;2023-03-16T01:27:04;97831.86;;;3.99;87.25
54554;BME280;40450;55.848;-3.572;2023-03-16T01:29:34;97825.74;;;2.90;88.95
54554;BME280;40450;55.848;-3.572;2023-03-16T01:32:04;97823.01;;;4.13;87.59
54554;BME280;40450;55.848;-3.572;2023-03-16T01:34:35;97817.91;;;2.20;90.67
54554;BME280;40450;55.848;-3.572;2023-03-16T01:37:05;97816.22;;;1.78;91.83
54554;BME280;40450;55.848;-3.572;2023-03-16T01:39:35;97809.49;;;2.59;91.49
54554;BME280;40450;55.848;-3.572;2023-03-16T01:42:06;97802.26;;;3.90;88.23
54554;BME280;40450;55.848;-3.572;2023-03-16T01:47:07;97796.86;;;5.47;84.74
54554;BME280;40450;55.848;-3.572;2023-03-16T01:49:37;97792.48;;;5.62;83.17
54554;BME280;40450;55.848;-3.572;2023-03-16T01:52:10;97787.52;;;5.64;83.89
54554;BME280;40450;55.848;-3.572;2023-03-16T01:54:41;97783.66;;;7.93;81.26
54554;BME280;40450;55.848;-3.572;2023-03-16T01:57:10;97776.61;;;8.75;80.38
54554;BME280;40450;55.848;-3.572;2023-03-16T01:59:43;97771.28;;;7.52;76.07
54554;BME280;40450;55.848;-3.572;2023-03-16T02:02:11;97768.89;;;7.42;80.79
54554;BME280;40450;55.848;-3.572;2023-03-16T02:04:44;97763.34;;;8.26;77.50
54554;BME280;40450;55.848;-3.572;2023-03-16T02:07:10;97761.58;;;7.08;79.98
54554;BME280;40450;55.848;-3.572;2023-03-16T02:09:40;97759.22;;;5.75;81.32
54554;BME280;40450;55.848;-3.572;2023-03-16T02:12:10;97753.59;;;6.89;80.50
54554;BME280;40450;55.848;-3.572;2023-03-16T02:14:40;97752.30;;;6.02;79.09
54554;BME280;40450;55.848;-3.572;2023-03-16T02:17:12;97743.93;;;7.31;78.88
54554;BME280;40450;55.848;-3.572;2023-03-16T02:19:47;97739.14;;;8.05;77.76
54554;BME280;40450;55.848;-3.572;2023-03-16T02:22:11;97744.68;;;4.79;82.04
54554;BME280;40450;55.848;-3.572;2023-03-16T02:24:42;97735.32;;;7.44;78.13
54554;BME280;40450;55.848;-3.572;2023-03-16T02:27:18;97732.34;;;6.47;79.70
54554;BME280;40450;55.848;-3.572;2023-03-16T02:29:51;97724.21;;;8.36;76.30
54554;BME280;40450;55.848;-3.572;2023-03-16T02:32:14;97715.20;;;8.86;73.72
54554;BME280;40450;55.848;-3.572;2023-03-16T02:34:44;97713.80;;;8.15;74.68
54554;BME280;40450;55.848;-3.572;2023-03-16T02:37:14;97711.26;;;8.65;74.98
54554;BME280;40450;55.848;-3.572;2023-03-16T02:39:44;97711.29;;;7.20;76.34
54554;BME280;40450;55.848;-3.572;2023-03-16T02:42:17;97710.72;;;8.12;75.38
54554;BME280;40450;55.848;-3.572;2023-03-16T02:44:47;97705.99;;;7.35;76.32
54554;BME280;40450;55.848;-3.572;2023-03-16T02:47:22;97709.23;;;5.94;78.71
54554;BME280;40450;55.848;-3.572;2023-03-16T02:49:46;97702.33;;;8.22;75.51
54554;BME280;40450;55.848;-3.572;2023-03-16T02:52:22;97700.06;;;7.09;77.15
54554;BME280;40450;55.848;-3.572;2023-03-16T02:54:47;97700.74;;;8.46;74.68
54554;BME280;40450;55.848;-3.572;2023-03-16T02:57:18;97696.35;;;8.23;74.15
54554;BME280;40450;55.848;-3.572;2023-03-16T02:59:48;97694.68;;;8.35;74.77
54554;BME280;40450;55.848;-3.572;2023-03-16T03:02:18;97686.68;;;7.18;74.95
54554;BME280;40450;55.848;-3.572;2023-03-16T03:04:49;97685.96;;;6.23;77.89
54554;BME280;40450;55.848;-3.572;2023-03-16T03:07:20;97680.69;;;6.78;76.84
54554;BME280;40450;55.848;-3.572;2023-03-16T03:09:49;97686.77;;;5.36;80.10
54554;BME280;40450;55.848;-3.572;2023-03-16T03:12:21;97682.07;;;4.43;83.10
54554;BME280;40450;55.848;-3.572;2023-03-16T03:14:51;97677.47;;;7.17;77.12
54554;BME280;40450;55.848;-3.572;2023-03-16T03:17:20;97682.62;;;5.84;80.18
54554;BME280;40450;55.848;-3.572;2023-03-16T03:19:52;97672.93;;;7.51;77.48
54554;BME280;40450;55.848;-3.572;2023-03-16T03:22:22;97676.80;;;4.68;82.68
54554;BME280;40450;55.848;-3.572;2023-03-16T03:24:53;97678.72;;;1.22;92.41
54554;BME280;40450;55.848;-3.572;2023-03-16T03:27:29;97671.14;;;5.17;84.32
54554;BME280;40450;55.848;-3.572;2023-03-16T03:29:53;97669.36;;;4.96;82.97
54554;BME280;40450;55.848;-3.572;2023-03-16T03:32:24;97664.37;;;5.37;82.72
54554;BME280;40450;55.848;-3.572;2023-03-16T03:34:55;97662.42;;;3.96;86.55
54554;BME280;40450;55.848;-3.572;2023-03-16T03:37:25;97654.87;;;6.50;81.96
54554;BME280;40450;55.848;-3.572;2023-03-16T03:39:57;97654.68;;;4.05;85.84
54554;BME280;40450;55.848;-3.572;2023-03-16T03:42:27;97651.16;;;4.50;85.50
54554;BME280;40450;55.848;-3.572;2023-03-16T03:44:57;97643.94;;;6.92;78.54
54554;BME280;40450;55.848;-3.572;2023-03-16T03:47:28;97639.17;;;7.89;78.37
54554;BME280;40450;55.848;-3.572;2023-03-16T03:50:01;97637.60;;;7.79;79.03
54554;BME280;40450;55.848;-3.572;2023-03-16T03:52:28;97628.63;;;8.31;77.40
54554;BME280;40450;55.848;-3.572;2023-03-16T03:55:00;97625.81;;;6.52;78.27
54554;BME280;40450;55.848;-3.572;2023-03-16T03:57:29;97620.04;;;8.03;76.84
54554;BME280;40450;55.848;-3.572;2023-03-16T04:00:07;97617.61;;;8.74;76.53
54554;BME280;40450;55.848;-3.572;2023-03-16T04:02:31;97623.11;;;5.28;81.04
54554;BME280;40450;55.848;-3.572;2023-03-16T04:05:02;97609.38;;;8.06;77.01
54554;BME280;40450;55.848;-3.572;2023-03-16T04:07:31;97617.58;;;2.86;87.96
54554;BME280;40450;55.848;-3.572;2023-03-16T04:10:02;97609.76;;;6.76;79.74
54554;BME280;40450;55.848;-3.572;2023-03-16T04:12:34;97611.74;;;4.88;82.36
54554;BME280;40450;55.848;-3.572;2023-03-16T04:15:03;97611.77;;;5.00;82.43
54554;BME280;40450;55.848;-3.572;2023-03-16T04:17:34;97601.41;;;7.36;78.84
54554;BME280;40450;55.848;-3.572;2023-03-16T04:20:04;97597.72;;;6.23;80.24
54554;BME280;40450;55.848;-3.572;2023-03-16T04:22:36;97594.07;;;7.17;78.83
54554;BME280;40450;55.848;-3.572;2023-03-16T04:25:04;97595.00;;;8.40;76.93
54554;BME280;40450;55.848;-3.572;2023-03-16T04:27:36;97586.87;;;8.45;75.74
54554;BME280;40450;55.848;-3.572;2023-03-16T04:30:07;97583.20;;;8.63;75.03
54554;BME280;40450;55.848;-3.572;2023-03-16T04:32:35;97587.28;;;7.31;77.72
54554;BME280;40450;55.848;-3.572;2023-03-16T04:35:06;97582.89;;;8.60;75.49
54554;BME280;40450;55.848;-3.572;2023-03-16T04:37:37;97583.45;;;5.70;80.49
54554;BME280;40450;55.848;-3.572;2023-03-16T04:40:14;97577.37;;;5.70;81.51
54554;BME280;40450;55.848;-3.572;2023-03-16T04:42:37;97580.68;;;4.39;84.26
54554;BME280;40450;55.848;-3.572;2023-03-16T04:45:08;97573.78;;;6.12;81.33
54554;BME280;40450;55.848;-3.572;2023-03-16T04:47:40;97572.83;;;6.02;81.24
54554;BME280;40450;55.848;-3.572;2023-03-16T04:50:11;97570.82;;;8.04;76.73
54554;BME280;40450;55.848;-3.572;2023-03-16T04:52:41;97572.56;;;8.04;77.00
54554;BME280;40450;55.848;-3.572;2023-03-16T04:55:09;97574.57;;;8.89;76.31
54554;BME280;40450;55.848;-3.572;2023-03-16T04:57:40;97577.56;;;4.71;82.69
54554;BME280;40450;55.848;-3.572;2023-03-16T05:00:11;97569.28;;;6.59;79.54
54554;BME280;40450;55.848;-3.572;2023-03-16T05:02:41;97566.15;;;8.30;77.22
54554;BME280;40450;55.848;-3.572;2023-03-16T05:05:11;97569.77;;;7.35;78.07
54554;BME280;40450;55.848;-3.572;2023-03-16T05:07:42;97563.11;;;6.38;79.06
54554;BME280;40450;55.848;-3.572;2023-03-16T05:10:16;97559.53;;;6.20;80.03
54554;BME280;40450;55.848;-3.572;2023-03-16T05:12:44;97556.12;;;6.29;80.78
54554;BME280;40450;55.848;-3.572;2023-03-16T05:15:15;97554.71;;;7.28;78.56
54554;BME280;40450;55.848;-3.572;2023-03-16T05:17:44;97552.65;;;6.90;79.30
54554;BME280;40450;55.848;-3.572;2023-03-16T05:20:19;97550.18;;;7.96;75.69
54554;BME280;40450;55.848;-3.572;2023-03-16T05:22:48;97547.19;;;7.94;76.80
54554;BME280;40450;55.848;-3.572;2023-03-16T05:25:16;97546.36;;;7.96;75.33
54554;BME280;40450;55.848;-3.572;2023-03-16T05:27:50;97547.96;;;6.79;77.85
54554;BME280;40450;55.848;-3.572;2023-03-16T05:30:18;97543.56;;;6.82;77.86
54554;BME280;40450;55.848;-3.572;2023-03-16T05:32:47;97541.89;;;8.72;76.31
54554;BME280;40450;55.848;-3.572;2023-03-16T05:35:17;97534.51;;;7.80;77.68
54554;BME280;40450;55.848;-3.572;2023-03-16T05:37:47;97532.90;;;8.95;74.23
54554;BME280;40450;55.848;-3.572;2023-03-16T05:40:17;97529.83;;;9.24;72.96
54554;BME280;40450;55.848;-3.572;2023-03-16T05:42:53;97534.33;;;5.23;82.51
54554;BME280;40450;55.848;-3.572;2023-03-16T05:45:18;97531.20;;;7.56;76.22
54554;BME280;40450;55.848;-3.572;2023-03-16T05:47:48;97531.73;;;3.50;87.51
54554;BME280;40450;55.848;-3.572;2023-03-16T05:50:19;97529.73;;;5.80;82.02
54554;BME280;40450;55.848;-3.572;2023-03-16T05:52:49;97522.15;;;5.84;80.90
54554;BME280;40450;55.848;-3.572;2023-03-16T05:55:21;97514.79;;;5.97;82.81
54554;BME280;40450;55.848;-3.572;2023-03-16T05:57:50;97507.82;;;7.78;79.29
54554;BME280;40450;55.848;-3.572;2023-03-16T06:00:21;97503.27;;;8.46;77.53
54554;BME280;40450;55.848;-3.572;2023-03-16T06:02:56;97501.39;;;9.62;73.65
54554;BME280;40450;55.848;-3.572;2023-03-16T06:05:22;97500.14;;;7.97;78.00
54554;BME280;40450;55.848;-3.572;2023-03-16T06:08:01;97495.55;;;8.00;76.78
54554;BME280;40450;55.848;-3.572;2023-03-16T06:10:22;97498.10;;;8.85;76.33
54554;BME280;40450;55.848;-3.572;2023-03-16T06:12:56;97492.44;;;9.86;74.58
54554;BME280;40450;55.848;-3.572;2023-03-16T06:15:27;97485.86;;;10.23;73.27
54554;BME280;40450;55.848;-3.572;2023-03-16T06:17:55;97480.09;;;10.83;72.88
54554;BME280;40450;55.848;-3.572;2023-03-16T06:20:22;97477.04;;;11.19;70.97
54554;BME280;40450;55.848;-3.572;2023-03-16T06:22:53;97475.93;;;11.21;70.83
54554;BME280;40450;55.848;-3.572;2023-03-16T06:28:19;97465.96;;;10.83;68.32
54554;BME280;40450;55.848;-3.572;2023-03-16T06:30:24;97467.82;;;11.03;68.44
54554;BME280;40450;55.848;-3.572;2023-03-16T06:32:53;97466.91;;;8.18;72.76
54554;BME280;40450;55.848;-3.572;2023-03-16T06:35:24;97454.73;;;10.25;69.76
54554;BME280;40450;55.848;-3.572;2023-03-16T07:00:33;97433.55;;;8.58;73.09
54554;BME280;40450;55.848;-3.572;2023-03-16T07:03:00;97432.10;;;8.50;73.59
54554;BME280;40450;55.848;-3.572;2023-03-16T07:05:29;97420.52;;;7.58;76.40
54554;BME280;40450;55.848;-3.572;2023-03-16T07:08:10;97419.10;;;8.40;74.69
54554;BME280;40450;55.848;-3.572;2023-03-16T07:10:32;97417.44;;;6.76;79.21
54554;BME280;40450;55.848;-3.572;2023-03-16T07:13:04;97418.46;;;4.77;84.94
54554;BME280;40450;55.848;-3.572;2023-03-16T07:20:32;97410.87;;;4.93;85.58
54554;BME280;40450;55.848;-3.572;2023-03-16T07:23:03;97407.70;;;6.73;80.61
54554;BME280;40450;55.848;-3.572;2023-03-16T07:25:33;97406.13;;;6.17;82.45
54554;BME280;40450;55.848;-3.572;2023-03-16T07:28:04;97410.67;;;5.35;84.30
54554;BME280;40450;55.848;-3.572;2023-03-16T07:30:34;97408.71;;;4.39;87.73
54554;BME280;40450;55.848;-3.572;2023-03-16T07:33:04;97403.37;;;4.70;87.49
54554;BME280;40450;55.848;-3.572;2023-03-16T07:35:34;97407.27;;;5.56;86.00
54554;BME280;40450;55.848;-3.572;2023-03-16T07:38:05;97400.38;;;6.86;83.12
54554;BME280;40450;55.848;-3.572;2023-03-16T07:40:36;97399.89;;;6.41;83.93
54554;BME280;40450;55.848;-3.572;2023-03-16T07:43:06;97394.81;;;6.70;83.40
54554;BME280;40450;55.848;-3.572;2023-03-16T07:45:38;97391.27;;;8.02;79.78
54554;BME280;40450;55.848;-3.572;2023-03-16T07:48:10;97386.01;;;8.82;79.33
54554;BME280;40450;55.848;-3.572;2023-03-16T07:50:38;97383.01;;;7.92;80.03
54554;BME280;40450;55.848;-3.572;2023-03-16T07:53:08;97384.01;;;4.94;87.43
54554;BME280;40450;55.848;-3.572;2023-03-16T07:55:38;97379.08;;;5.10;87.33
54554;BME280;40450;55.848;-3.572;2023-03-16T07:58:08;97375.95;;;6.29;85.51
54554;BME280;40450;55.848;-3.572;2023-03-16T08:00:39;97380.48;;;3.31;92.79
54554;BME280;40450;55.848;-3.572;2023-03-16T08:03:09;97377.35;;;5.01;90.09
54554;BME280;40450;55.848;-3.572;2023-03-16T08:05:40;97374.97;;;6.33;87.66
54554;BME280;40450;55.848;-3.572;2023-03-16T08:08:10;97372.56;;;6.65;86.22
54554;BME280;40450;55.848;-3.572;2023-03-16T08:10:41;97367.62;;;4.42;91.04
54554;BME280;40450;55.848;-3.572;2023-03-16T08:15:41;97375.55;;;3.22;93.42
54554;BME280;40450;55.848;-3.572;2023-03-16T08:18:11;97364.85;;;5.29;90.52
54554;BME280;40450;55.848;-3.572;2023-03-16T08:20:41;97358.04;;;5.29;90.53
54554;BME280;40450;55.848;-3.572;2023-03-16T08:23:12;97362.72;;;1.80;95.55
54554;BME280;40450;55.848;-3.572;2023-03-16T08:25:42;97362.12;;;4.77;92.25
54554;BME280;40450;55.848;-3.572;2023-03-16T08:28:14;97365.74;;;6.22;89.41
54554;BME280;40450;55.848;-3.572;2023-03-16T08:30:45;97360.47;;;5.90;90.32
54554;BME280;40450;55.848;-3.572;2023-03-16T08:33:15;97352.15;;;4.64;93.33
54554;BME280;40450;55.848;-3.572;2023-03-16T08:35:45;97359.80;;;2.50;97.28
54554;BME280;40450;55.848;-3.572;2023-03-16T08:38:14;97354.28;;;3.80;97.11
54554;BME280;40450;55.848;-3.572;2023-03-16T08:40:45;97346.71;;;5.85;93.93
54554;BME280;40450;55.848;-3.572;2023-03-16T08:43:16;97345.19;;;6.75;90.74
54554;BME280;40450;55.848;-3.572;2023-03-16T08:45:47;97350.86;;;5.46;91.96
54554;BME280;40450;55.848;-3.572;2023-03-16T08:48:17;97353.16;;;1.50;100.00
54554;BME280;40450;55.848;-3.572;2023-03-16T08:50:48;97355.74;;;3.67;96.96
54554;BME280;40450;55.848;-3.572;2023-03-16T08:53:17;97345.74;;;4.76;94.96
54554;BME280;40450;55.848;-3.572;2023-03-16T08:55:48;97342.14;;;5.91;91.80
54554;BME280;40450;55.848;-3.572;2023-03-16T08:58:18;97336.15;;;6.94;90.31
54554;BME280;40450;55.848;-3.572;2023-03-16T09:00:48;97337.59;;;7.93;87.79
54554;BME280;40450;55.848;-3.572;2023-03-16T09:03:18;97337.45;;;8.34;90.12
54554;BME280;40450;55.848;-3.572;2023-03-16T09:05:49;97337.70;;;7.79;94.22
54554;BME280;40450;55.848;-3.572;2023-03-16T09:08:20;97336.75;;;7.76;94.44
54554;BME280;40450;55.848;-3.572;2023-03-16T09:10:50;97335.21;;;7.50;95.61
54554;BME280;40450;55.848;-3.572;2023-03-16T09:13:25;97331.13;;;7.08;97.33
54554;BME280;40450;55.848;-3.572;2023-03-16T09:15:50;97325.03;;;6.79;98.31
54554;BME280;40450;55.848;-3.572;2023-03-16T09:18:21;97323.18;;;6.72;98.61
54554;BME280;40450;55.848;-3.572;2023-03-16T09:20:52;97321.19;;;6.75;98.63
54554;BME280;40450;55.848;-3.572;2023-03-16T09:23:21;97323.23;;;6.58;99.18
54554;BME280;40450;55.848;-3.572;2023-03-16T09:25:55;97320.29;;;6.16;99.89
54554;BME280;40450;55.848;-3.572;2023-03-16T09:28:22;97322.43;;;5.89;100.00
54554;BME280;40450;55.848;-3.572;2023-03-16T09:30:53;97321.33;;;5.29;100.00
54554;BME280;40450;55.848;-3.572;2023-03-16T09:33:24;97318.49;;;5.06;100.00
54554;BME280;40450;55.848;-3.572;2023-03-16T09:35:54;97319.19;;;5.31;100.00
54554;BME280;40450;55.848;-3.572;2023-03-16T09:38:24;97311.50;;;5.96;100.00
54554;BME280;40450;55.848;-3.572;2023-03-16T09:40:58;97310.49;;;5.93;100.00
54554;BME280;40450;55.848;-3.572;2023-03-16T09:43:36;97312.55;;;5.61;100.00
54554;BME280;40450;55.848;-3.572;2023-03-16T09:46:01;97303.68;;;6.14;100.00
54554;BME280;40450;55.848;-3.572;2023-03-16T09:48:26;97304.51;;;5.75;100.00
54554;BME280;40450;55.848;-3.572;2023-03-16T09:50:58;97300.81;;;6.47;100.00
54554;BME280;40450;55.848;-3.572;2023-03-16T09:53:28;97302.51;;;5.95;100.00
54554;BME280;40450;55.848;-3.572;2023-03-16T09:56:01;97305.46;;;6.23;100.00
54554;BME280;40450;55.848;-3.572;2023-03-16T09:58:27;97305.98;;;6.20;100.00
54554;BME280;40450;55.848;-3.572;2023-03-16T10:01:04;97305.56;;;6.60;100.00
54554;BME280;40450;55.848;-3.572;2023-03-16T10:03:35;97305.64;;;6.67;100.00
54554;BME280;40450;55.848;-3.572;2023-03-16T10:06:00;97300.67;;;6.50;100.00
54554;BME280;40450;55.848;-3.572;2023-03-16T10:08:33;97298.06;;;6.44;100.00
54554;BME280;40450;55.848;-3.572;2023-03-16T10:13:40;97309.35;;;5.49;100.00
54554;BME280;40450;55.848;-3.572;2023-03-16T10:16:05;97306.02;;;5.00;100.00
54554;BME280;40450;55.848;-3.572;2023-03-16T10:18:33;97307.17;;;5.08;100.00
54554;BME280;40450;55.848;-3.572;2023-03-16T10:21:01;97303.77;;;5.07;100.00
54554;BME280;40450;55.848;-3.572;2023-03-16T10:23:33;97300.97;;;5.55;100.00
54554;BME280;40450;55.848;-3.572;2023-03-16T10:26:09;97298.21;;;4.96;100.00
54554;BME280;40450;55.848;-3.572;2023-03-16T10:28:32;97294.88;;;4.57;100.00
54554;BME280;40450;55.848;-3.572;2023-03-16T10:31:02;97288.91;;;4.47;100.00
54554;BME280;40450;55.848;-3.572;2023-03-16T10:33:33;97284.28;;;4.64;100.00
54554;BME280;40450;55.848;-3.572;2023-03-16T10:36:09;97287.77;;;4.51;100.00
54554;BME280;40450;55.848;-3.572;2023-03-16T10:38:39;97280.64;;;5.11;100.00
54554;BME280;40450;55.848;-3.572;2023-03-16T10:41:05;97276.95;;;4.75;100.00
54554;BME280;40450;55.848;-3.572;2023-03-16T10:43:34;97277.28;;;4.77;100.00
54554;BME280;40450;55.848;-3.572;2023-03-16T10:46:04;97272.22;;;5.10;100.00
54554;BME280;40450;55.848;-3.572;2023-03-16T10:48:34;97281.94;;;5.28;100.00
54554;BME280;40450;55.848;-3.572;2023-03-16T10:51:07;97281.80;;;5.46;100.00
54554;BME280;40450;55.848;-3.572;2023-03-16T10:53:39;97275.04;;;5.92;100.00
54554;BME280;40450;55.848;-3.572;2023-03-16T10:56:10;97276.43;;;5.77;100.00
54554;BME280;40450;55.848;-3.572;2023-03-16T10:58:39;97282.89;;;5.21;100.00
54554;BME280;40450;55.848;-3.572;2023-03-16T11:01:10;97284.05;;;6.03;100.00
54554;BME280;40450;55.848;-3.572;2023-03-16T11:03:38;97280.00;;;5.92;100.00
54554;BME280;40450;55.848;-3.572;2023-03-16T11:06:16;97273.28;;;6.13;100.00
54554;BME280;40450;55.848;-3.572;2023-03-16T11:08:38;97278.92;;;5.81;100.00
54554;BME280;40450;55.848;-3.572;2023-03-16T11:11:09;97277.39;;;5.53;100.00
54554;BME280;40450;55.848;-3.572;2023-03-16T11:13:43;97275.44;;;6.00;100.00
54554;BME280;40450;55.848;-3.572;2023-03-16T11:16:20;97267.83;;;6.27;100.00
54554;BME280;40450;55.848;-3.572;2023-03-16T11:18:42;97272.07;;;5.58;100.00
54554;BME280;40450;55.848;-3.572;2023-03-16T11:21:13;97271.88;;;5.69;100.00
54554;BME280;40450;55.848;-3.572;2023-03-16T11:23:45;97263.22;;;5.40;100.00
54554;BME280;40450;55.848;-3.572;2023-03-16T11:26:14;97267.51;;;5.42;100.00
54554;BME280;40450;55.848;-3.572;2023-03-16T11:28:46;97265.53;;;5.31;100.00
54554;BME280;40450;55.848;-3.572;2023-03-16T11:31:18;97273.25;;;5.19;100.00
54554;BME280;40450;55.848;-3.572;2023-03-16T11:33:40;97264.55;;;5.84;100.00
54554;BME280;40450;55.848;-3.572;2023-03-16T11:36:21;97263.55;;;6.62;100.00
54554;BME280;40450;55.848;-3.572;2023-03-16T11:38:46;97254.02;;;6.54;100.00
54554;BME280;40450;55.848;-3.572;2023-03-16T11:41:16;97259.08;;;6.77;100.00
54554;BME280;40450;55.848;-3.572;2023-03-16T11:43:50;97255.06;;;7.27;100.00
54554;BME280;40450;55.848;-3.572;2023-03-16T11:46:15;97258.29;;;7.44;100.00
54554;BME280;40450;55.848;-3.572;2023-03-16T11:48:51;97258.23;;;7.37;100.00
54554;BME280;40450;55.848;-3.572;2023-03-16T11:51:25;97247.90;;;7.01;100.00
54554;BME280;40450;55.848;-3.572;2023-03-16T11:53:51;97249.05;;;6.41;100.00
54554;BME280;40450;55.848;-3.572;2023-03-16T11:56:20;97243.40;;;6.52;100.00
54554;BME280;40450;55.848;-3.572;2023-03-16T11:58:57;97249.54;;;7.27;100.00
54554;BME280;40450;55.848;-3.572;2023-03-16T12:01:19;97248.08;;;8.26;100.00
54554;BME280;40450;55.848;-3.572;2023-03-16T12:03:56;97242.61;;;7.29;100.00
54554;BME280;40450;55.848;-3.572;2023-03-16T12:06:24;97248.71;;;7.82;100.00
54554;BME280;40450;55.848;-3.572;2023-03-16T12:08:58;97249.66;;;7.42;100.00
54554;BME280;40450;55.848;-3.572;2023-03-16T12:11:21;97242.41;;;8.18;100.00
54554;BME280;40450;55.848;-3.572;2023-03-16T12:13:57;97251.09;;;7.40;100.00
54554;BME280;40450;55.848;-3.572;2023-03-16T12:16:20;97247.55;;;6.78;100.00
54554;BME280;40450;55.848;-3.572;2023-03-16T12:18:50;97249.52;;;6.62;100.00
54554;BME280;40450;55.848;-3.572;2023-03-16T12:21:20;97249.94;;;7.70;100.00
54554;BME280;40450;55.848;-3.572;2023-03-16T12:23:50;97243.47;;;7.98;100.00
54554;BME280;40450;55.848;-3.572;2023-03-16T12:26:20;97242.34;;;8.02;100.00
54554;BME280;40450;55.848;-3.572;2023-03-16T12:28:51;97252.55;;;7.54;100.00
54554;BME280;40450;55.848;-3.572;2023-03-16T12:31:21;97248.75;;;6.60;100.00
54554;BME280;40450;55.848;-3.572;2023-03-16T12:34:01;97251.23;;;6.94;100.00
54554;BME280;40450;55.848;-3.572;2023-03-16T12:36:34;97250.42;;;6.82;100.00
54554;BME280;40450;55.848;-3.572;2023-03-16T12:38:52;97248.92;;;7.08;100.00
54554;BME280;40450;55.848;-3.572;2023-03-16T12:41:27;97250.31;;;6.90;100.00
54554;BME280;40450;55.848;-3.572;2023-03-16T12:43:59;97253.21;;;6.82;100.00
54554;BME280;40450;55.848;-3.572;2023-03-16T12:46:26;97255.73;;;6.97;100.00
54554;BME280;40450;55.848;-3.572;2023-03-16T12:48:54;97256.56;;;8.23;100.00
54554;BME280;40450;55.848;-3.572;2023-03-16T12:53:53;97248.65;;;8.70;99.34
54554;BME280;40450;55.848;-3.572;2023-03-16T12:56:28;97253.86;;;8.83;99.52
54554;BME280;40450;55.848;-3.572;2023-03-16T12:58:56;97263.89;;;8.43;99.71
54554;BME280;40450;55.848;-3.572;2023-03-16T13:01:28;97258.67;;;8.64;99.75
54554;BME280;40450;55.848;-3.572;2023-03-16T13:04:00;97267.40;;;8.24;100.00
54554;BME280;40450;55.848;-3.572;2023-03-16T13:06:33;97259.86;;;9.00;99.69
54554;BME280;40450;55.848;-3.572;2023-03-16T13:08:56;97268.77;;;7.91;100.00
54554;BME280;40450;55.848;-3.572;2023-03-16T13:11:25;97274.82;;;8.24;100.00
54554;BME280;40450;55.848;-3.572;2023-03-16T13:14:05;97275.78;;;8.14;100.00
54554;BME280;40450;55.848;-3.572;2023-03-16T13:16:27;97271.05;;;7.34;100.00
54554;BME280;40450;55.848;-3.572;2023-03-16T13:18:55;97272.75;;;7.63;100.00
54554;BME280;40450;55.848;-3.572;2023-03-16T13:21:34;97273.53;;;8.10;100.00
54554;BME280;40450;55.848;-3.572;2023-03-16T13:23:58;97275.44;;;7.50;100.00
54554;BME280;40450;55.848;-3.572;2023-03-16T13:26:36;97269.68;;;8.57;99.94
54554;BME280;40450;55.848;-3.572;2023-03-16T13:28:56;97262.53;;;8.71;99.74
54554;BME280;40450;55.848;-3.572;2023-03-16T13:31:34;97259.45;;;9.01;99.81
54554;BME280;40450;55.848;-3.572;2023-03-16T13:33:59;97262.23;;;8.79;99.58
54554;BME280;40450;55.848;-3.572;2023-03-16T13:36:28;97269.98;;;8.31;99.78
54554;BME280;40450;55.848;-3.572;2023-03-16T13:39:05;97273.24;;;8.31;99.98
54554;BME280;40450;55.848;-3.572;2023-03-16T13:41:28;97271.07;;;8.25;100.00
54554;BME280;40450;55.848;-3.572;2023-03-16T13:43:58;97276.03;;;7.80;100.00
54554;BME280;40450;55.848;-3.572;2023-03-16T13:46:29;97273.63;;;7.46;100.00
54554;BME280;40450;55.848;-3.572;2023-03-16T13:48:59;97272.94;;;7.38;100.00
54554;BME280;40450;55.848;-3.572;2023-03-16T13:51:33;97273.08;;;7.17;100.00
54554;BME280;40450;55.848;-3.572;2023-03-16T13:54:04;97266.68;;;7.45;100.00